createdAt,value
2022-10-18T00:00:48.425Z,13.09
2022-10-18T00:03:17.524Z,13.10
2022-10-18T00:05:44.534Z,13.11
2022-10-18T00:08:11.749Z,13.09
2022-10-18T00:10:38.419Z,13.10
2022-10-18T00:13:05.587Z,13.07
2022-10-18T00:15:32.638Z,13.02
2022-10-18T00:17:59.684Z,13.01
2022-10-18T00:20:26.785Z,13.00
2022-10-18T00:22:54.323Z,12.94
2022-10-18T00:25:20.968Z,12.93
2022-10-18T00:27:47.796Z,12.90
2022-10-18T00:30:14.581Z,12.87
2022-10-18T00:32:41.994Z,12.83
2022-10-18T00:35:08.998Z,12.82
2022-10-18T00:37:35.997Z,12.80
2022-10-18T00:40:04.147Z,12.77
2022-10-18T00:42:34.543Z,12.72
2022-10-18T00:45:01.198Z,12.72
2022-10-18T00:47:28.112Z,12.66
2022-10-18T00:49:58.478Z,12.63
2022-10-18T00:52:35.154Z,12.63
2022-10-18T00:55:03.350Z,12.60
2022-10-18T00:57:31.113Z,12.61
2022-10-18T00:59:58.365Z,12.58
2022-10-18T01:02:26.525Z,12.56
2022-10-18T01:04:52.989Z,12.56
2022-10-18T01:07:42.867Z,12.56
2022-10-18T01:10:28.153Z,12.55
2022-10-18T01:13:05.229Z,12.50
2022-10-18T01:15:43.429Z,12.45
2022-10-18T01:18:25.420Z,12.47
2022-10-18T01:21:00.544Z,12.46
2022-10-18T01:23:39.219Z,12.40
2022-10-18T01:26:33.445Z,12.43
2022-10-18T01:29:18.379Z,12.45
2022-10-18T01:31:57.644Z,12.43
2022-10-18T01:34:31.637Z,12.38
2022-10-18T01:37:01.097Z,12.36
2022-10-18T01:39:32.118Z,12.35
2022-10-18T01:42:05.778Z,12.33
2022-10-18T01:44:34.468Z,12.30
2022-10-18T01:47:01.128Z,12.32
2022-10-18T01:49:27.754Z,12.35
2022-10-18T01:51:54.434Z,12.37
2022-10-18T01:54:42.915Z,12.38
2022-10-18T01:57:31.694Z,12.38
2022-10-18T02:00:23.533Z,12.36
2022-10-18T02:03:01.735Z,12.32
2022-10-18T02:05:52.600Z,12.28
2022-10-18T02:08:33.225Z,12.24
2022-10-18T02:11:12.953Z,12.22
2022-10-18T02:13:45.633Z,12.20
2022-10-18T02:16:25.614Z,12.15
2022-10-18T02:19:15.316Z,12.13
2022-10-18T02:21:45.915Z,12.11
2022-10-18T02:24:25.436Z,12.06
2022-10-18T02:26:52.025Z,12.04
2022-10-18T02:29:18.682Z,11.98
2022-10-18T02:31:49.095Z,11.94
2022-10-18T02:34:34.494Z,11.91
2022-10-18T02:37:02.749Z,11.87
2022-10-18T02:39:41.417Z,11.81
2022-10-18T02:42:10.347Z,11.82
2022-10-18T02:44:38.069Z,11.81
2022-10-18T02:47:06.513Z,11.80
2022-10-18T02:49:33.392Z,11.78
2022-10-18T02:52:00.016Z,11.77
2022-10-18T02:54:26.764Z,11.82
2022-10-18T02:56:53.233Z,11.84
2022-10-18T02:59:21.584Z,11.84
2022-10-18T03:01:48.391Z,11.81
2022-10-18T03:04:15.185Z,11.81
2022-10-18T03:06:42.123Z,11.82
2022-10-18T03:09:09.610Z,11.76
2022-10-18T03:11:36.468Z,11.71
2022-10-18T03:14:02.916Z,11.71
2022-10-18T03:16:29.578Z,11.70
2022-10-18T03:18:56.175Z,11.66
2022-10-18T03:21:23.045Z,11.62
2022-10-18T03:23:49.653Z,11.62
2022-10-18T03:26:16.474Z,11.58
2022-10-18T03:28:43.338Z,11.53
2022-10-18T03:31:09.899Z,11.52
2022-10-18T03:33:36.774Z,11.53
2022-10-18T03:36:03.796Z,11.52
2022-10-18T03:38:30.729Z,11.51
2022-10-18T03:40:57.257Z,11.49
2022-10-18T03:43:24.050Z,11.51
2022-10-18T03:45:51.094Z,11.51
2022-10-18T03:48:17.740Z,11.48
2022-10-18T03:50:44.460Z,11.46
2022-10-18T03:53:12.204Z,11.46
2022-10-18T03:55:39.430Z,11.41
2022-10-18T03:58:06.338Z,11.40
2022-10-18T04:00:33.335Z,11.43
2022-10-18T04:03:00.098Z,11.48
2022-10-18T04:05:30.198Z,11.53
2022-10-18T04:07:57.447Z,11.49
2022-10-18T04:10:24.505Z,11.52
2022-10-18T04:12:51.222Z,11.49
2022-10-18T04:15:18.034Z,11.49
2022-10-18T04:17:44.871Z,11.47
2022-10-18T04:20:12.115Z,11.44
2022-10-18T04:22:38.813Z,11.49
2022-10-18T04:25:05.568Z,11.48
2022-10-18T04:27:32.560Z,11.49
2022-10-18T04:30:00.184Z,11.48
2022-10-18T04:32:28.948Z,11.48
2022-10-18T04:34:55.625Z,11.49
2022-10-18T04:37:22.457Z,11.49
2022-10-18T04:39:52.725Z,11.47
2022-10-18T04:42:22.014Z,11.49
2022-10-18T04:44:49.079Z,11.43
2022-10-18T04:47:16.749Z,11.41
2022-10-18T04:49:43.375Z,11.44
2022-10-18T04:52:11.370Z,11.43
2022-10-18T04:54:38.348Z,11.38
2022-10-18T04:57:04.908Z,11.39
2022-10-18T04:59:31.658Z,11.34
2022-10-18T05:01:58.756Z,11.33
2022-10-18T05:04:25.486Z,11.36
2022-10-18T05:06:52.310Z,11.37
2022-10-18T05:09:18.977Z,11.33
2022-10-18T05:11:46.057Z,11.31
2022-10-18T05:14:12.900Z,11.31
2022-10-18T05:16:39.388Z,11.29
2022-10-18T05:19:06.018Z,11.27
2022-10-18T05:21:33.376Z,11.22
2022-10-18T05:24:00.284Z,11.21
2022-10-18T05:26:27.170Z,11.19
2022-10-18T05:28:54.070Z,11.18
2022-10-18T05:31:21.024Z,11.17
2022-10-18T05:33:48.039Z,11.19
2022-10-18T05:36:14.778Z,11.21
2022-10-18T05:38:42.476Z,11.21
2022-10-18T05:41:09.598Z,11.23
2022-10-18T05:43:36.438Z,11.27
2022-10-18T05:46:04.398Z,11.32
2022-10-18T05:48:31.446Z,11.38
2022-10-18T05:50:59.406Z,11.44
2022-10-18T05:53:41.915Z,11.49
2022-10-18T05:56:11.378Z,11.56
2022-10-18T05:58:39.085Z,11.66
2022-10-18T06:01:06.869Z,11.72
2022-10-18T06:03:33.990Z,11.80
2022-10-18T06:06:07.807Z,11.89
2022-10-18T06:08:35.019Z,12.02
2022-10-18T06:11:13.211Z,12.15
2022-10-18T06:13:44.735Z,12.29
2022-10-18T06:16:13.548Z,12.43
2022-10-18T06:18:40.570Z,12.57
2022-10-18T06:21:08.129Z,12.73
2022-10-18T06:23:35.315Z,12.92
2022-10-18T06:26:05.087Z,13.09
2022-10-18T06:28:35.106Z,13.20
2022-10-18T06:31:02.774Z,13.33
2022-10-18T06:33:35.054Z,13.45
2022-10-18T06:36:23.908Z,13.55
2022-10-18T06:38:50.657Z,13.68
2022-10-18T06:41:19.411Z,13.79
2022-10-18T06:43:50.374Z,13.89
2022-10-18T06:46:16.958Z,14.01
2022-10-18T06:48:44.223Z,14.12
2022-10-18T06:51:11.427Z,14.24
2022-10-18T06:53:44.205Z,14.35
2022-10-18T06:56:20.145Z,14.48
2022-10-18T06:58:47.131Z,14.61
2022-10-18T07:01:16.610Z,14.75
2022-10-18T07:03:44.894Z,14.89
2022-10-18T07:06:14.276Z,15.06
2022-10-18T07:08:41.362Z,15.19
2022-10-18T07:11:13.574Z,15.28
2022-10-18T07:13:40.490Z,15.39
2022-10-18T07:16:17.280Z,15.41
2022-10-18T07:18:49.276Z,15.41
2022-10-18T07:21:19.190Z,15.48
2022-10-18T07:23:46.118Z,15.60
2022-10-18T07:26:18.637Z,15.76
2022-10-18T07:28:48.773Z,15.93
2022-10-18T07:31:15.470Z,16.07
2022-10-18T07:33:45.032Z,16.22
2022-10-18T07:36:13.115Z,16.39
2022-10-18T07:38:40.690Z,16.52
2022-10-18T07:41:12.000Z,16.63
2022-10-18T07:43:45.228Z,16.77
2022-10-18T07:46:14.767Z,16.80
2022-10-18T07:48:41.493Z,16.87
2022-10-18T07:51:08.610Z,17.03
2022-10-18T07:53:36.157Z,17.26
2022-10-18T07:56:09.672Z,17.55
2022-10-18T07:58:37.067Z,17.74
2022-10-18T08:01:05.630Z,17.95
2022-10-18T08:03:33.177Z,18.04
2022-10-18T08:06:00.208Z,18.19
2022-10-18T08:08:27.575Z,18.40
2022-10-18T08:10:54.175Z,18.55
2022-10-18T08:13:21.225Z,18.68
2022-10-18T08:15:47.964Z,18.85
2022-10-18T08:18:14.659Z,18.93
2022-10-18T08:20:45.284Z,18.88
2022-10-18T08:23:12.217Z,18.91
2022-10-18T08:25:39.375Z,18.75
2022-10-18T08:28:06.680Z,18.79
2022-10-18T08:30:36.038Z,18.99
2022-10-18T08:33:03.061Z,19.14
2022-10-18T08:35:31.445Z,19.32
2022-10-18T08:37:58.865Z,19.42
2022-10-18T08:40:27.069Z,19.38
2022-10-18T08:43:21.850Z,19.66
2022-10-18T08:45:51.007Z,20.32
2022-10-18T08:48:43.060Z,20.70
2022-10-18T08:51:28.675Z,21.01
2022-10-18T08:54:23.344Z,20.94
2022-10-18T08:57:00.216Z,20.91
2022-10-18T08:59:37.225Z,21.03
2022-10-18T09:02:09.865Z,21.38
2022-10-18T09:04:42.514Z,21.85
2022-10-18T09:07:25.125Z,21.88
2022-10-18T09:10:20.170Z,21.73
2022-10-18T09:13:14.680Z,22.09
2022-10-18T09:15:48.563Z,22.64
2022-10-18T09:18:52.443Z,23.09
2022-10-18T09:21:54.964Z,23.04
2022-10-18T09:25:10.818Z,23.00
2022-10-18T09:27:55.579Z,23.23
2022-10-18T09:30:31.224Z,23.72
2022-10-18T09:33:00.724Z,24.03
2022-10-18T09:35:29.312Z,23.96
2022-10-18T09:38:15.612Z,23.66
2022-10-18T09:40:58.318Z,23.87
2022-10-18T09:43:47.339Z,24.23
2022-10-18T09:46:15.654Z,24.75
2022-10-18T09:48:49.037Z,24.76
2022-10-18T09:51:22.718Z,24.44
2022-10-18T09:54:24.749Z,24.38
2022-10-18T09:57:17.777Z,24.74
2022-10-18T09:59:49.159Z,25.46
2022-10-18T10:02:20.425Z,26.12
2022-10-18T10:04:48.568Z,26.46
2022-10-18T10:07:23.785Z,26.52
2022-10-18T10:10:08.343Z,26.98
2022-10-18T10:12:37.798Z,27.49
2022-10-18T10:15:29.522Z,28.05
2022-10-18T10:18:23.385Z,28.56
2022-10-18T10:20:56.285Z,29.03
2022-10-18T10:23:36.142Z,28.93
2022-10-18T10:26:34.097Z,27.89
2022-10-18T10:29:01.314Z,26.39
2022-10-18T10:31:44.694Z,25.70
2022-10-18T10:34:14.400Z,25.31
2022-10-18T10:36:50.736Z,25.30
2022-10-18T10:39:19.575Z,25.44
2022-10-18T10:41:52.757Z,25.66
2022-10-18T10:44:23.098Z,25.90
2022-10-18T10:46:51.503Z,25.72
2022-10-18T10:49:41.270Z,25.65
2022-10-18T10:52:34.865Z,25.99
2022-10-18T10:55:23.252Z,25.71
2022-10-18T10:57:52.282Z,25.55
2022-10-18T11:00:45.345Z,25.06
2022-10-18T11:03:29.517Z,24.68
2022-10-18T11:06:00.424Z,24.36
2022-10-18T11:08:36.025Z,24.17
2022-10-18T11:11:32.575Z,23.98
2022-10-18T11:14:26.596Z,24.54
2022-10-18T11:17:15.357Z,25.48
2022-10-18T11:20:09.116Z,26.24
2022-10-18T11:22:59.662Z,26.56
2022-10-18T11:25:59.079Z,26.79
2022-10-18T11:28:52.639Z,27.08
2022-10-18T11:31:47.274Z,27.52
2022-10-18T11:34:38.850Z,27.78
2022-10-18T11:37:30.339Z,27.51
2022-10-18T11:40:38.951Z,27.71
2022-10-18T11:43:17.561Z,27.55
2022-10-18T11:45:56.443Z,27.08
2022-10-18T11:48:45.141Z,26.27
2022-10-18T11:51:33.930Z,25.79
2022-10-18T11:54:47.960Z,25.76
2022-10-18T11:57:36.071Z,25.54
2022-10-18T12:00:21.280Z,25.22
2022-10-18T12:03:03.753Z,25.51
2022-10-18T12:05:34.738Z,25.46
2022-10-18T12:08:13.340Z,25.62
2022-10-18T12:10:59.922Z,26.18
2022-10-18T12:13:57.379Z,26.39
2022-10-18T12:16:49.998Z,25.89
2022-10-18T12:19:27.556Z,24.93
2022-10-18T12:22:14.110Z,24.31
2022-10-18T12:24:41.667Z,23.67
2022-10-18T12:27:13.259Z,23.12
2022-10-18T12:29:50.524Z,22.91
2022-10-18T12:32:24.595Z,22.83
2022-10-18T12:35:11.067Z,22.46
2022-10-18T12:37:49.555Z,22.11
2022-10-18T12:40:21.641Z,21.74
2022-10-18T12:42:51.849Z,21.68
2022-10-18T12:45:35.503Z,21.76
2022-10-18T12:48:35.953Z,21.81
2022-10-18T12:51:21.358Z,21.63
2022-10-18T12:53:59.744Z,21.39
2022-10-18T12:56:29.518Z,21.30
2022-10-18T12:59:14.747Z,21.23
2022-10-18T13:01:50.622Z,21.13
2022-10-18T13:04:33.162Z,21.07
2022-10-18T13:07:07.434Z,20.96
2022-10-18T13:09:36.376Z,20.91
2022-10-18T13:12:09.426Z,20.96
2022-10-18T13:15:12.380Z,20.91
2022-10-18T13:18:05.090Z,20.84
2022-10-18T13:20:41.658Z,20.81
2022-10-18T13:23:39.289Z,20.73
2022-10-18T13:26:54.173Z,20.75
2022-10-18T13:29:59.011Z,20.83
2022-10-18T13:32:36.189Z,20.84
2022-10-18T13:35:03.198Z,20.76
2022-10-18T13:37:30.304Z,20.70
2022-10-18T13:40:23.968Z,20.69
2022-10-18T13:42:50.889Z,20.64
2022-10-18T13:45:52.169Z,20.51
2022-10-18T13:48:30.609Z,20.43
2022-10-18T13:51:12.446Z,20.36
2022-10-18T13:53:57.708Z,20.29
2022-10-18T13:56:36.567Z,20.24
2022-10-18T13:59:31.547Z,20.15
2022-10-18T14:02:30.692Z,20.17
2022-10-18T14:05:25.177Z,20.19
2022-10-18T14:08:04.677Z,20.16
2022-10-18T14:11:04.954Z,20.17
2022-10-18T14:14:01.952Z,20.22
2022-10-18T14:16:54.598Z,20.25
2022-10-18T14:19:48.887Z,20.23
2022-10-18T14:22:28.454Z,20.21
2022-10-18T14:24:58.024Z,20.13
2022-10-18T14:27:28.009Z,20.10
2022-10-18T14:30:15.589Z,20.06
2022-10-18T14:32:55.338Z,19.94
2022-10-18T14:35:33.284Z,19.78
2022-10-18T14:38:01.835Z,19.68
2022-10-18T14:40:35.402Z,19.59
2022-10-18T14:43:13.747Z,19.53
2022-10-18T14:45:42.195Z,19.47
2022-10-18T14:48:21.881Z,19.40
2022-10-18T14:50:59.890Z,19.30
2022-10-18T14:53:32.189Z,19.24
2022-10-18T14:56:03.968Z,19.16
2022-10-18T14:58:34.248Z,19.07
2022-10-18T15:01:01.041Z,19.00
2022-10-18T15:03:32.516Z,18.92
2022-10-18T15:06:01.960Z,18.86
2022-10-18T15:08:56.364Z,18.79
2022-10-18T15:11:25.426Z,18.70
2022-10-18T15:14:17.443Z,18.59
2022-10-18T15:16:44.849Z,18.48
2022-10-18T15:19:14.094Z,18.37
2022-10-18T15:25:11.202Z,18.16
2022-10-18T15:27:39.597Z,18.07
2022-10-18T15:30:28.383Z,17.98
2022-10-18T15:33:00.664Z,17.84
2022-10-18T15:35:41.412Z,17.76
2022-10-18T15:38:33.432Z,17.69
2022-10-18T15:41:00.217Z,17.65
2022-10-18T15:43:27.120Z,17.58
2022-10-18T15:45:58.913Z,17.49
2022-10-18T15:48:41.337Z,17.36
2022-10-18T15:51:46.123Z,17.23
2022-10-18T15:54:28.872Z,17.09
2022-10-18T15:56:56.309Z,16.90
2022-10-18T15:59:30.314Z,16.64
2022-10-18T16:01:57.476Z,16.45
2022-10-18T16:04:30.710Z,16.30
2022-10-18T16:06:58.814Z,16.16
2022-10-18T16:09:45.773Z,16.09
2022-10-18T16:12:12.492Z,16.00
2022-10-18T16:14:44.860Z,15.91
2022-10-18T16:17:16.898Z,15.79
2022-10-18T16:19:44.215Z,15.70
2022-10-18T16:24:40.145Z,15.56
2022-10-18T16:27:06.831Z,15.51
2022-10-18T16:29:34.081Z,15.51
2022-10-18T16:32:00.727Z,15.46
2022-10-18T16:34:31.882Z,15.41
2022-10-18T16:36:58.817Z,15.38
2022-10-18T16:39:25.733Z,15.38
2022-10-18T16:41:52.294Z,15.38
2022-10-18T16:44:19.283Z,15.38
2022-10-18T16:46:46.550Z,15.38
2022-10-18T16:49:25.233Z,15.38
2022-10-18T16:51:53.334Z,15.36
2022-10-18T16:54:20.476Z,15.35
2022-10-18T16:56:49.580Z,15.36
2022-10-18T16:59:31.041Z,15.35
2022-10-18T17:01:58.218Z,15.35
2022-10-18T17:04:24.958Z,15.32
2022-10-18T17:06:54.220Z,15.28
2022-10-18T17:09:21.185Z,15.27
2022-10-18T17:11:47.924Z,15.26
2022-10-18T17:14:14.520Z,15.23
2022-10-18T17:16:42.896Z,15.22
2022-10-18T17:19:11.865Z,15.24
2022-10-18T17:21:38.592Z,15.24
2022-10-18T17:24:06.032Z,15.22
2022-10-18T17:26:33.658Z,15.14
2022-10-18T17:29:04.484Z,15.07
2022-10-18T17:31:32.329Z,15.00
2022-10-18T17:34:01.227Z,15.00
2022-10-18T17:36:29.725Z,14.93
2022-10-18T17:38:57.092Z,14.83
2022-10-18T17:41:23.841Z,14.71
2022-10-18T17:43:50.475Z,14.59
2022-10-18T17:46:17.330Z,14.49
2022-10-18T17:48:44.766Z,14.40
2022-10-18T17:51:14.835Z,14.31
2022-10-18T17:53:41.982Z,14.25
2022-10-18T17:56:10.504Z,14.19
2022-10-18T17:58:37.247Z,14.14
2022-10-18T18:01:13.150Z,14.08
2022-10-18T18:03:40.854Z,14.00
2022-10-18T18:06:30.446Z,13.95
2022-10-18T18:08:58.851Z,13.91
2022-10-18T18:11:26.092Z,13.87
2022-10-18T18:13:54.970Z,13.84
2022-10-18T18:16:25.937Z,13.84
2022-10-18T18:18:54.418Z,13.86
2022-10-18T18:21:22.632Z,13.84
2022-10-18T18:23:50.221Z,13.85
2022-10-18T18:26:17.789Z,13.89
2022-10-18T18:28:45.101Z,13.91
2022-10-18T18:31:18.704Z,13.93
2022-10-18T18:33:45.848Z,13.94
2022-10-18T18:36:12.779Z,13.95
2022-10-18T18:38:42.155Z,13.94
2022-10-18T18:41:16.154Z,13.90
2022-10-18T18:43:55.518Z,13.90
2022-10-18T18:46:22.705Z,13.91
2022-10-18T18:48:49.762Z,13.94
2022-10-18T18:51:19.728Z,13.96
2022-10-18T18:53:48.375Z,13.94
2022-10-18T18:56:18.017Z,13.90
2022-10-18T18:58:45.993Z,13.88
2022-10-18T19:01:18.605Z,13.87
2022-10-18T19:03:47.135Z,13.86
2022-10-18T19:06:17.965Z,13.84
2022-10-18T19:08:45.784Z,13.80
2022-10-18T19:11:25.124Z,13.78
2022-10-18T19:13:51.907Z,13.79
2022-10-18T19:16:24.179Z,13.80
2022-10-18T19:18:56.906Z,13.82
2022-10-18T19:21:27.137Z,13.78
2022-10-18T19:23:55.728Z,13.78
2022-10-18T19:26:50.355Z,13.80
2022-10-18T19:29:27.099Z,13.83
2022-10-18T19:31:56.528Z,13.84
2022-10-18T19:34:25.262Z,13.84
2022-10-18T19:36:52.334Z,13.77
2022-10-18T19:39:24.474Z,13.73
2022-10-18T19:41:54.841Z,13.70
2022-10-18T19:44:23.777Z,13.68
2022-10-18T19:46:50.828Z,13.65
2022-10-18T19:49:17.704Z,13.62
2022-10-18T19:51:44.530Z,13.59
2022-10-18T19:54:12.562Z,13.57
2022-10-18T19:56:41.105Z,13.58
2022-10-18T19:59:09.095Z,13.59
2022-10-18T20:01:36.546Z,13.59
2022-10-18T20:04:04.265Z,13.59
2022-10-18T20:06:31.430Z,13.57
2022-10-18T20:08:58.014Z,13.53
2022-10-18T20:11:26.763Z,13.48
2022-10-18T20:13:53.793Z,13.45
2022-10-18T20:16:27.829Z,13.47
2022-10-18T20:19:11.172Z,13.51
2022-10-18T20:21:39.235Z,13.49
2022-10-18T20:24:07.021Z,13.50
2022-10-18T20:26:35.388Z,13.52
2022-10-18T20:29:03.400Z,13.53
2022-10-18T20:31:33.360Z,13.59
2022-10-18T20:34:02.545Z,13.65
2022-10-18T20:36:31.678Z,13.66
2022-10-18T20:38:58.591Z,13.69
2022-10-18T20:41:30.905Z,13.69
2022-10-18T20:44:03.576Z,13.64
2022-10-18T20:46:32.348Z,13.62
2022-10-18T20:48:59.175Z,13.56
2022-10-18T20:51:26.094Z,13.58
2022-10-18T20:53:53.491Z,13.59
2022-10-18T20:56:22.833Z,13.61
2022-10-18T20:58:51.392Z,13.60
2022-10-18T21:01:28.804Z,13.61
2022-10-18T21:03:58.435Z,13.62
2022-10-18T21:06:28.944Z,13.61
2022-10-18T21:08:57.909Z,13.65
2022-10-18T21:11:25.656Z,13.65
2022-10-18T21:13:55.032Z,13.64
2022-10-18T21:16:21.750Z,13.65
2022-10-18T21:18:48.673Z,13.64
2022-10-18T21:21:18.070Z,13.63
2022-10-18T21:23:46.443Z,13.60
2022-10-18T21:26:15.640Z,13.58
2022-10-18T21:28:42.462Z,13.60
2022-10-18T21:31:12.367Z,13.61
2022-10-18T21:33:41.634Z,13.59
2022-10-18T21:36:09.523Z,13.56
2022-10-18T21:38:36.499Z,13.58
2022-10-18T21:41:09.460Z,13.60
2022-10-18T21:43:40.789Z,13.59
2022-10-18T21:46:09.532Z,13.60
2022-10-18T21:48:37.470Z,13.60
2022-10-18T21:51:07.980Z,13.57
2022-10-18T21:53:43.213Z,13.61
2022-10-18T21:56:13.163Z,13.64
2022-10-18T21:58:41.147Z,13.64
2022-10-18T22:01:15.358Z,13.63
2022-10-18T22:03:44.009Z,13.61
2022-10-18T22:06:14.618Z,13.59
2022-10-18T22:08:50.226Z,13.61
2022-10-18T22:11:19.928Z,13.61
2022-10-18T22:13:47.014Z,13.60
2022-10-18T22:16:15.743Z,13.59
2022-10-18T22:18:47.811Z,13.57
2022-10-18T22:21:17.456Z,13.56
2022-10-18T22:23:47.025Z,13.54
2022-10-18T22:26:27.099Z,13.57
2022-10-18T22:29:03.283Z,13.54
2022-10-18T22:31:49.722Z,13.54
2022-10-18T22:34:19.240Z,13.56
2022-10-18T22:36:46.260Z,13.56
2022-10-18T22:39:14.791Z,13.56
2022-10-18T22:41:42.105Z,13.54
2022-10-18T22:44:11.923Z,13.50
2022-10-18T22:46:39.444Z,13.49
2022-10-18T22:49:06.413Z,13.47
2022-10-18T22:54:00.314Z,13.46
2022-10-18T22:56:27.050Z,13.43
2022-10-18T22:58:53.669Z,13.41
2022-10-18T23:01:22.980Z,13.40
2022-10-18T23:03:54.503Z,13.38
2022-10-18T23:06:30.040Z,13.30
2022-10-18T23:08:58.885Z,13.25
2022-10-18T23:11:27.629Z,13.24
2022-10-18T23:13:54.569Z,13.22
2022-10-18T23:16:21.428Z,13.23
2022-10-18T23:18:53.929Z,13.23
2022-10-18T23:21:23.722Z,13.27
2022-10-18T23:23:51.526Z,13.27
2022-10-18T23:26:21.786Z,13.27
2022-10-18T23:28:50.319Z,13.27
2022-10-18T23:31:23.495Z,13.25
2022-10-18T23:33:52.497Z,13.27
2022-10-18T23:36:19.814Z,13.26
2022-10-18T23:38:46.536Z,13.24
2022-10-18T23:41:14.890Z,13.21
2022-10-18T23:43:42.757Z,13.21
2022-10-18T23:46:10.236Z,13.20
2022-10-18T23:48:36.838Z,13.18
2022-10-18T23:51:04.008Z,13.17
2022-10-18T23:53:31.159Z,13.13
2022-10-18T23:56:03.897Z,13.08
2022-10-18T23:58:32.350Z,13.06
